• Join FlightAware (Why Join?)
  • Login
  • US Flag 
12:31PM EST


 

Airport Tracker/Info


-or-


 

Live Flight TrackerFlight Track Log ✈ N770NC ✈ 13-Jun-2013 ✈ KAGS - KATL

Flight Track Log - Related Links

Times and Time Zones

All times are in EDT time to prevent confusion due to time zone crossing. See the N770NC flight status page for this flight to view local times or setup timezone preferences in your user account.

Time Position Orientation Groundspeed Altitude Reporting Facility
EDT Latitude Longitude Course Direction KTS MPH feet Rate Location/Type
08:21AM 33.4311 -82.0175 239° Southwest 171 197 2,900  Level Atlanta Center
08:22AM 33.4239 -82.0900 263° West 174 200 4,600 2,100 Climbing Atlanta Center
08:23AM 33.5685 -82.0759 337° Northwest  Level FlightAware Approximate
08:23AM 33.4128 -82.1747 261° West 211 243 7,100  Level Atlanta Center
08:24AM 33.6353 -82.1177 337° Northwest  Level FlightAware Approximate
08:24AM 33.3994 -82.2647 260° West 253 291 9,300  Level Atlanta Center
08:25AM 33.6978 -82.1566 248° West  Level FlightAware Approximate
08:25AM 33.3906 -82.3669 264° West 291 335 11,000  Level Atlanta Center
08:26AM 33.6642 -82.2383 239° Southwest  Level FlightAware Approximate
08:26AM 33.3794 -82.4817 263° West 325 374 12,100  Level Atlanta Center
08:27AM 33.6251 -82.3166 239° Southwest  Level FlightAware Approximate
08:27AM 33.3686 -82.6111 264° West 373 429 13,400  Level Atlanta Center
08:28AM 33.3575 -82.7481 264° West 409 471 15,400 1,800 Climbing Atlanta Center
08:29AM 33.3506 -82.8850 267° West 421 484 17,100 1,620 Climbing Atlanta Center
08:30AM 33.3433 -83.0267 267° West 436 502 18,700 900 Climbing Atlanta Center
08:31AM 33.3342 -83.1711 266° West 442 509 19,000 -540 Climbing Atlanta Center
08:32AM 33.3267 -83.3253 267° West 442 509 17,700 -2,160 Descending Atlanta Center
08:33AM 33.3233 -83.4619 268° West 429 494 14,700 -2,700 Descending Atlanta Center
08:34AM 33.3239 -83.5864 270° West 400 460 12,400 -1,740 Descending Atlanta Center
08:35AM 33.3333 -83.6500 280° West 375 432 12,000 -480 Descending Atlanta TRACON
08:36AM 33.3333 -83.7833 270° West 365 420 11,700 -720 Descending Atlanta TRACON
08:37AM 33.3333 -83.8833 270° West 320 368 10,600 -1,020 Descending Atlanta TRACON
08:37AM 33.3433 -83.9219 287° West 339 390 10,300 -1,500 Descending Atlanta Center
08:38AM 33.4247 -83.9392 350° North 246 283 8,500 -1,200 Descending Atlanta Center
08:39AM 33.5042 -83.9492 354° North 266 306 7,900 -1,020 Descending Atlanta Center
08:40AM 33.5792 -83.9789 342° North 279 321 6,500 -960 Descending Atlanta Center
08:41AM 33.6106 -84.0389 302° West 249 287 6,000 -420 Descending Atlanta Center
08:42AM 33.6294 -84.1086 288° West 229 264 5,700 -480 Descending Atlanta Center
08:43AM 33.6333 -84.1500 276° West 214 246 5,300 -1,080 Descending Atlanta TRACON
08:44AM 33.6333 -84.2167 270° West 208 239 4,200 -1,260 Descending Atlanta TRACON